createdAt,value
2023-11-29T00:01:19.804Z,20.57
2023-11-29T00:03:46.315Z,21.00
2023-11-29T00:06:12.947Z,18.17
2023-11-29T00:08:39.458Z,19.03
2023-11-29T00:11:06.820Z,17.00
2023-11-29T00:13:33.391Z,18.60
2023-11-29T00:16:00.017Z,20.13
2023-11-29T00:18:26.668Z,17.17
2023-11-29T00:20:53.318Z,17.30
2023-11-29T00:23:19.880Z,16.70
2023-11-29T00:25:46.502Z,20.17
2023-11-29T00:28:13.103Z,16.90
2023-11-29T00:30:39.615Z,22.13
2023-11-29T00:33:06.253Z,16.23
2023-11-29T00:35:33.182Z,15.00
2023-11-29T00:37:59.939Z,18.33
2023-11-29T00:40:26.576Z,14.20
2023-11-29T00:43:00.178Z,16.20
2023-11-29T00:45:30.623Z,16.23
2023-11-29T00:47:57.285Z,16.27
2023-11-29T00:50:23.996Z,17.10
2023-11-29T00:52:50.627Z,15.73
2023-11-29T00:55:22.479Z,15.83
2023-11-29T00:57:52.818Z,15.43
2023-11-29T01:00:19.536Z,16.70
2023-11-29T01:02:46.323Z,15.20
2023-11-29T01:05:12.933Z,15.70
2023-11-29T01:07:39.747Z,16.47
2023-11-29T01:10:06.774Z,18.30
2023-11-29T01:12:33.284Z,16.40
2023-11-29T01:14:59.787Z,16.87
2023-11-29T01:17:26.352Z,16.17
2023-11-29T01:19:55.348Z,15.63
2023-11-29T01:22:21.834Z,16.43
2023-11-29T01:24:48.308Z,16.13
2023-11-29T01:27:14.826Z,14.20
2023-11-29T01:29:41.354Z,13.57
2023-11-29T01:32:07.938Z,13.50
2023-11-29T01:34:34.523Z,16.77
2023-11-29T01:37:01.015Z,13.83
2023-11-29T01:39:27.674Z,17.30
2023-11-29T01:41:54.197Z,15.83
2023-11-29T01:44:20.811Z,15.40
2023-11-29T01:46:48.545Z,14.80
2023-11-29T01:49:18.782Z,15.00
2023-11-29T01:51:47.018Z,15.77
2023-11-29T01:54:17.457Z,14.80
2023-11-29T01:56:44.226Z,14.90
2023-11-29T01:59:10.851Z,18.23
2023-11-29T02:01:37.468Z,16.30
2023-11-29T02:04:04.212Z,16.33
2023-11-29T02:06:31.799Z,14.20
2023-11-29T02:08:58.414Z,15.70
2023-11-29T02:11:27.956Z,15.93
2023-11-29T02:13:54.509Z,16.37
2023-11-29T02:16:21.111Z,15.37
2023-11-29T02:18:48.065Z,16.20
2023-11-29T02:21:14.751Z,16.57
2023-11-29T02:23:48.616Z,16.90
2023-11-29T02:26:15.209Z,18.90
2023-11-29T02:28:41.751Z,15.03
2023-11-29T02:31:08.315Z,14.80
2023-11-29T02:33:34.866Z,17.10
2023-11-29T02:36:01.410Z,15.90
2023-11-29T02:38:27.987Z,18.00
2023-11-29T02:40:54.719Z,15.33
2023-11-29T02:43:21.793Z,16.30
2023-11-29T02:45:48.341Z,15.40
2023-11-29T02:48:14.976Z,16.30
2023-11-29T02:50:44.539Z,15.00
2023-11-29T02:53:11.153Z,18.20
2023-11-29T02:55:37.719Z,15.27
2023-11-29T02:58:04.279Z,18.40
2023-11-29T03:00:31.199Z,16.30
2023-11-29T03:02:59.417Z,16.80
2023-11-29T03:05:26.152Z,16.07
2023-11-29T03:07:52.727Z,15.50
2023-11-29T03:10:19.248Z,15.33
2023-11-29T03:12:45.794Z,14.90
2023-11-29T03:15:15.217Z,16.70
2023-11-29T03:17:42.378Z,16.50
2023-11-29T03:20:10.259Z,17.10
2023-11-29T03:22:36.905Z,19.07
2023-11-29T03:25:04.442Z,16.73
2023-11-29T03:27:30.960Z,17.33
2023-11-29T03:29:57.513Z,17.63
2023-11-29T03:32:24.150Z,17.80
2023-11-29T03:34:50.683Z,19.43
2023-11-29T03:37:17.227Z,15.33
2023-11-29T03:39:43.722Z,15.30
2023-11-29T03:42:10.200Z,17.47
2023-11-29T03:44:37.739Z,15.97
2023-11-29T03:47:04.612Z,18.67
2023-11-29T03:49:31.178Z,19.10
2023-11-29T03:51:57.711Z,19.20
2023-11-29T03:54:24.257Z,16.57
2023-11-29T03:56:50.828Z,16.67
2023-11-29T03:59:17.328Z,17.87
2023-11-29T04:01:43.898Z,18.00
2023-11-29T04:04:10.482Z,16.27
2023-11-29T04:06:37.074Z,18.47
2023-11-29T04:09:04.281Z,17.23
2023-11-29T04:11:31.042Z,16.77
2023-11-29T04:13:57.576Z,17.53
2023-11-29T04:16:29.021Z,16.63
2023-11-29T04:18:55.939Z,18.00
2023-11-29T04:21:30.886Z,17.00
2023-11-29T04:23:57.692Z,21.07
2023-11-29T04:26:24.113Z,18.07
2023-11-29T04:28:50.698Z,19.67
2023-11-29T04:31:17.394Z,19.57
2023-11-29T04:33:43.937Z,17.73
2023-11-29T04:36:11.305Z,21.40
2023-11-29T04:38:40.835Z,25.40
2023-11-29T04:41:07.964Z,19.97
2023-11-29T04:43:34.567Z,18.80
2023-11-29T04:46:01.229Z,20.77
2023-11-29T04:48:27.844Z,20.77
2023-11-29T04:50:54.414Z,18.37
2023-11-29T04:53:21.054Z,21.37
2023-11-29T04:55:47.606Z,20.90
2023-11-29T04:58:14.408Z,21.50
2023-11-29T05:00:40.984Z,20.07
2023-11-29T05:03:07.769Z,23.60
2023-11-29T05:05:34.427Z,23.90
2023-11-29T05:08:00.924Z,19.93
2023-11-29T05:10:51.865Z,22.40
2023-11-29T05:13:18.850Z,23.73
2023-11-29T05:15:49.350Z,25.23
2023-11-29T05:18:16.252Z,27.90
2023-11-29T05:20:43.154Z,24.30
2023-11-29T05:23:09.721Z,22.97
2023-11-29T05:25:36.235Z,23.57
2023-11-29T05:28:02.813Z,24.57
2023-11-29T05:30:29.398Z,28.03
2023-11-29T05:32:55.988Z,21.43
2023-11-29T05:35:22.599Z,23.83
2023-11-29T05:37:49.210Z,20.97
2023-11-29T05:40:15.919Z,27.00
2023-11-29T05:42:42.502Z,25.80
2023-11-29T05:45:09.422Z,21.07
2023-11-29T05:47:36.713Z,23.70
2023-11-29T05:50:04.124Z,28.03
2023-11-29T05:52:30.819Z,30.17
2023-11-29T05:54:57.602Z,24.27
2023-11-29T05:57:24.177Z,30.37
2023-11-29T05:59:51.295Z,38.50
2023-11-29T06:02:17.989Z,34.00
2023-11-29T06:04:44.703Z,31.03
2023-11-29T06:07:11.600Z,25.50
2023-11-29T06:09:40.393Z,27.63
2023-11-29T06:12:08.412Z,31.13
2023-11-29T06:14:35.943Z,36.67
2023-11-29T06:17:02.471Z,27.53
2023-11-29T06:19:29.280Z,27.30
2023-11-29T06:21:56.481Z,28.60
2023-11-29T06:24:23.512Z,31.03
2023-11-29T06:26:50.578Z,26.23
2023-11-29T06:29:17.331Z,30.00
2023-11-29T06:31:43.990Z,24.13
2023-11-29T06:34:10.621Z,25.40
2023-11-29T06:36:37.409Z,25.73
2023-11-29T06:39:04.241Z,20.57
2023-11-29T06:41:31.135Z,27.10
2023-11-29T06:43:57.863Z,22.40
2023-11-29T06:46:24.465Z,25.77
2023-11-29T06:48:51.648Z,24.00
2023-11-29T06:51:18.367Z,22.47
2023-11-29T06:53:45.041Z,22.70
2023-11-29T06:56:11.943Z,20.27
2023-11-29T06:58:41.377Z,22.70
2023-11-29T07:01:11.402Z,19.53
2023-11-29T07:03:38.017Z,18.83
2023-11-29T07:06:04.626Z,21.93
2023-11-29T07:08:32.419Z,33.00
2023-11-29T07:11:00.513Z,19.17
2023-11-29T07:13:27.157Z,18.77
2023-11-29T07:15:57.721Z,25.17
2023-11-29T07:18:26.077Z,20.17
2023-11-29T07:20:53.301Z,18.63
2023-11-29T07:23:23.465Z,18.80
2023-11-29T07:25:53.416Z,20.30
2023-11-29T07:28:20.004Z,22.27
2023-11-29T07:30:46.542Z,20.30
2023-11-29T07:33:13.259Z,18.63
2023-11-29T07:35:39.906Z,17.70
2023-11-29T07:38:07.088Z,17.57
2023-11-29T07:40:34.004Z,18.50
2023-11-29T07:43:00.654Z,20.90
2023-11-29T07:45:27.194Z,23.57
2023-11-29T07:47:53.943Z,17.80
2023-11-29T07:50:21.677Z,18.93
2023-11-29T07:52:48.393Z,16.97
2023-11-29T07:55:14.962Z,18.10
2023-11-29T07:57:41.503Z,17.70
2023-11-29T08:00:08.556Z,19.70
2023-11-29T08:02:35.838Z,24.33
2023-11-29T08:05:02.586Z,19.10
2023-11-29T08:07:30.123Z,21.90
2023-11-29T08:09:56.900Z,17.27
2023-11-29T08:12:23.386Z,18.23
2023-11-29T08:14:51.631Z,23.30
2023-11-29T08:17:18.306Z,17.70
2023-11-29T08:19:44.887Z,19.60
2023-11-29T08:22:12.378Z,18.30
2023-11-29T08:24:38.965Z,17.47
2023-11-29T08:27:05.746Z,19.50
2023-11-29T08:29:32.356Z,19.53
2023-11-29T08:31:58.909Z,19.53
2023-11-29T08:34:25.439Z,17.30
2023-11-29T08:36:51.991Z,23.07
2023-11-29T08:39:18.529Z,23.80
2023-11-29T08:41:45.480Z,24.93
2023-11-29T08:44:14.456Z,18.63
2023-11-29T08:46:41.722Z,19.53
2023-11-29T08:49:09.584Z,21.20
2023-11-29T08:51:36.142Z,19.03
2023-11-29T08:54:02.877Z,18.93
2023-11-29T08:56:29.471Z,23.43
2023-11-29T08:58:56.632Z,21.70
2023-11-29T09:01:23.196Z,19.60
2023-11-29T09:03:51.027Z,17.17
2023-11-29T09:06:17.985Z,18.93
2023-11-29T09:08:44.968Z,19.00
2023-11-29T09:11:11.596Z,23.03
2023-11-29T09:13:39.405Z,20.73
2023-11-29T09:16:07.954Z,17.63
2023-11-29T09:18:35.149Z,16.70
2023-11-29T09:21:02.004Z,13.83
2023-11-29T09:23:28.677Z,17.03
2023-11-29T09:25:55.294Z,18.90
2023-11-29T09:28:21.881Z,14.13
2023-11-29T09:30:48.571Z,14.90
2023-11-29T09:33:15.213Z,13.90
2023-11-29T09:35:43.998Z,15.37
2023-11-29T09:38:11.789Z,11.87
2023-11-29T09:40:38.428Z,16.57
2023-11-29T09:43:06.147Z,13.93
2023-11-29T09:45:33.481Z,14.50
2023-11-29T09:48:01.340Z,14.30
2023-11-29T09:50:28.704Z,15.30
2023-11-29T09:52:56.545Z,15.40
2023-11-29T09:55:23.065Z,13.70
2023-11-29T09:57:49.672Z,16.17
2023-11-29T10:00:18.250Z,12.37
2023-11-29T10:02:45.079Z,12.57
2023-11-29T10:05:12.356Z,12.50
2023-11-29T10:07:38.956Z,13.30
2023-11-29T10:10:07.166Z,13.17
2023-11-29T10:12:38.065Z,13.77
2023-11-29T10:15:10.258Z,15.30
2023-11-29T10:17:43.181Z,11.50
2023-11-29T10:20:12.483Z,16.07
2023-11-29T10:22:39.342Z,17.10
2023-11-29T10:25:19.081Z,12.33
2023-11-29T10:27:46.636Z,13.43
2023-11-29T10:30:14.671Z,12.50
2023-11-29T10:32:42.618Z,13.40
2023-11-29T10:35:13.975Z,12.93
2023-11-29T10:37:50.907Z,15.63
2023-11-29T10:40:36.221Z,12.60
2023-11-29T10:43:06.910Z,12.27
2023-11-29T10:45:36.267Z,13.57
2023-11-29T10:48:13.559Z,14.30
2023-11-29T10:50:41.382Z,12.20
2023-11-29T10:53:08.213Z,12.10
2023-11-29T10:55:39.535Z,12.07
2023-11-29T10:58:12.201Z,12.70
2023-11-29T11:00:39.777Z,12.70
2023-11-29T11:03:10.188Z,15.33
2023-11-29T11:05:37.237Z,14.27
2023-11-29T11:08:03.974Z,10.90
2023-11-29T11:10:30.985Z,14.67
2023-11-29T11:12:59.486Z,10.77
2023-11-29T11:15:29.421Z,13.80
2023-11-29T11:18:02.339Z,10.83
2023-11-29T11:20:51.730Z,11.00
2023-11-29T11:23:20.998Z,11.20
2023-11-29T11:25:47.917Z,13.03
2023-11-29T11:28:36.049Z,14.10
2023-11-29T11:31:07.678Z,9.87
2023-11-29T11:33:52.614Z,15.33
2023-11-29T11:36:26.414Z,13.33
2023-11-29T11:38:53.492Z,10.07
2023-11-29T11:41:20.185Z,10.03
2023-11-29T11:43:48.051Z,8.87
2023-11-29T11:46:16.955Z,9.20
2023-11-29T11:48:46.239Z,10.70
2023-11-29T11:51:12.938Z,7.50
2023-11-29T11:53:43.656Z,7.30
2023-11-29T11:56:20.705Z,7.20
2023-11-29T11:58:47.474Z,7.70
2023-11-29T12:01:15.567Z,6.90
2023-11-29T12:03:42.226Z,9.47
2023-11-29T12:06:10.091Z,9.83
2023-11-29T12:08:38.610Z,8.37
2023-11-29T12:11:08.540Z,8.53
2023-11-29T12:13:35.708Z,9.17
2023-11-29T12:16:15.616Z,8.00
2023-11-29T12:18:42.399Z,7.30
2023-11-29T12:21:09.339Z,8.10
2023-11-29T12:23:38.210Z,9.07
2023-11-29T12:26:05.029Z,8.10
2023-11-29T12:28:33.582Z,8.77
2023-11-29T12:31:00.561Z,8.70
2023-11-29T12:33:27.299Z,9.70
2023-11-29T12:35:53.894Z,9.20
2023-11-29T12:38:20.493Z,9.43
2023-11-29T12:40:47.221Z,9.97
2023-11-29T12:43:13.702Z,10.10
2023-11-29T12:45:40.238Z,10.43
2023-11-29T12:48:06.886Z,13.10
2023-11-29T12:50:33.969Z,10.53
2023-11-29T12:53:00.819Z,11.57
2023-11-29T12:55:27.387Z,15.53
2023-11-29T12:57:55.348Z,11.20
2023-11-29T13:00:23.015Z,11.23
2023-11-29T13:02:49.551Z,11.33
2023-11-29T13:05:16.104Z,10.73
2023-11-29T13:07:42.578Z,11.40
2023-11-29T13:10:09.345Z,12.30
2023-11-29T13:12:35.946Z,13.00
2023-11-29T13:15:03.082Z,13.27
2023-11-29T13:17:29.835Z,18.33
2023-11-29T13:19:56.345Z,11.90
2023-11-29T13:22:22.868Z,15.13
2023-11-29T13:24:49.472Z,11.33
2023-11-29T13:27:17.207Z,14.17
2023-11-29T13:29:44.307Z,15.50
2023-11-29T13:32:12.061Z,12.40
2023-11-29T13:34:38.863Z,10.43
2023-11-29T13:37:05.423Z,13.70
2023-11-29T13:39:32.464Z,11.50
2023-11-29T13:41:59.268Z,8.50
2023-11-29T13:44:28.802Z,11.27
2023-11-29T13:46:56.245Z,13.83
2023-11-29T13:49:23.145Z,11.47
2023-11-29T13:52:00.925Z,12.27
2023-11-29T13:54:35.154Z,11.60
2023-11-29T13:57:02.889Z,13.23
2023-11-29T13:59:29.635Z,12.60
2023-11-29T14:01:56.423Z,11.77
2023-11-29T14:04:23.304Z,12.50
2023-11-29T14:06:50.119Z,13.33
2023-11-29T14:09:16.599Z,12.93
2023-11-29T14:11:44.510Z,11.67
2023-11-29T14:14:11.089Z,19.13
2023-11-29T14:16:39.858Z,12.57
2023-11-29T14:19:06.465Z,12.10
2023-11-29T14:21:37.177Z,11.93
2023-11-29T14:24:04.170Z,10.43
2023-11-29T14:26:30.907Z,12.10
2023-11-29T14:28:57.506Z,16.43
2023-11-29T14:31:24.199Z,13.03
2023-11-29T14:33:50.760Z,15.03
2023-11-29T14:36:17.569Z,13.57
2023-11-29T14:38:44.119Z,10.40
2023-11-29T14:41:12.297Z,11.03
2023-11-29T14:43:39.280Z,11.50
2023-11-29T14:46:06.090Z,11.73
2023-11-29T14:48:33.847Z,14.57
2023-11-29T14:51:04.012Z,12.93
2023-11-29T14:53:32.059Z,12.50
2023-11-29T14:55:59.043Z,16.20
2023-11-29T14:58:25.583Z,15.67
2023-11-29T15:00:52.141Z,18.13
2023-11-29T15:03:20.530Z,16.30
2023-11-29T15:05:47.437Z,12.80
2023-11-29T15:08:13.943Z,19.53
2023-11-29T15:10:42.238Z,15.80
2023-11-29T15:13:08.920Z,13.90
2023-11-29T15:15:35.474Z,14.67
2023-11-29T15:18:02.121Z,15.10
2023-11-29T15:20:28.634Z,19.77
2023-11-29T15:22:55.773Z,17.80
2023-11-29T15:25:22.510Z,17.80
2023-11-29T15:27:49.145Z,13.83
2023-11-29T15:30:15.865Z,13.37
2023-11-29T15:32:42.555Z,12.77
2023-11-29T15:35:09.415Z,15.67
2023-11-29T15:37:36.112Z,17.00
2023-11-29T15:40:02.757Z,17.23
2023-11-29T15:42:29.627Z,17.73
2023-11-29T15:44:56.476Z,21.67
2023-11-29T15:47:23.178Z,18.47
2023-11-29T15:49:49.796Z,18.83
2023-11-29T15:52:16.363Z,17.20
2023-11-29T15:54:42.953Z,20.80
2023-11-29T15:57:09.550Z,19.93
2023-11-29T15:59:36.140Z,18.00
2023-11-29T16:02:02.914Z,19.53
2023-11-29T16:04:29.605Z,17.57
2023-11-29T16:06:56.389Z,18.07
2023-11-29T16:09:22.906Z,18.13
2023-11-29T16:11:51.201Z,18.70
2023-11-29T16:14:19.033Z,19.73
2023-11-29T16:16:45.590Z,21.63
2023-11-29T16:19:12.192Z,19.37
2023-11-29T16:21:38.697Z,20.73
2023-11-29T16:24:05.462Z,19.47
2023-11-29T16:26:32.234Z,22.13
2023-11-29T16:28:58.814Z,20.13
2023-11-29T16:31:25.786Z,18.67
2023-11-29T16:33:52.833Z,18.90
2023-11-29T16:36:19.730Z,18.13
2023-11-29T16:38:46.917Z,17.67
2023-11-29T16:41:13.908Z,20.70
2023-11-29T16:43:40.502Z,16.50
2023-11-29T16:46:07.570Z,15.73
2023-11-29T16:48:34.289Z,16.13
2023-11-29T16:51:01.042Z,14.83
2023-11-29T16:53:28.213Z,14.63
2023-11-29T16:55:55.658Z,14.60
2023-11-29T16:58:22.478Z,16.80
2023-11-29T17:00:49.068Z,16.23
2023-11-29T17:03:17.597Z,16.93
2023-11-29T17:05:45.216Z,15.13
2023-11-29T17:08:13.048Z,13.50
2023-11-29T17:10:40.334Z,16.70
2023-11-29T17:13:07.576Z,18.43
2023-11-29T17:15:34.514Z,13.97
2023-11-29T17:18:01.360Z,15.40
2023-11-29T17:20:27.940Z,16.67
2023-11-29T17:22:54.454Z,14.33
2023-11-29T17:25:21.041Z,14.37
2023-11-29T17:27:48.429Z,14.70
2023-11-29T17:30:15.462Z,13.77
2023-11-29T17:32:42.187Z,15.23
2023-11-29T17:35:09.123Z,15.07
2023-11-29T17:37:36.412Z,14.57
2023-11-29T17:40:03.429Z,15.73
2023-11-29T17:42:29.929Z,14.20
2023-11-29T17:44:56.478Z,13.20
2023-11-29T17:47:23.898Z,16.70
2023-11-29T17:49:50.455Z,15.20
2023-11-29T17:52:16.963Z,16.80
2023-11-29T17:54:43.546Z,19.20
2023-11-29T17:57:10.802Z,14.17
2023-11-29T17:59:37.459Z,18.20
2023-11-29T18:02:04.320Z,18.70
2023-11-29T18:04:30.901Z,17.67
2023-11-29T18:06:57.440Z,22.23
2023-11-29T18:09:24.005Z,16.13
2023-11-29T18:11:50.601Z,17.40
2023-11-29T18:14:17.195Z,16.37
2023-11-29T18:16:46.279Z,17.67
2023-11-29T18:19:13.177Z,23.03
2023-11-29T18:21:39.720Z,15.67
2023-11-29T18:24:06.770Z,16.10
2023-11-29T18:26:33.263Z,17.43
2023-11-29T18:28:59.804Z,22.90
2023-11-29T18:31:26.402Z,20.20
2023-11-29T18:33:52.942Z,18.17
2023-11-29T18:36:20.821Z,17.63
2023-11-29T18:38:47.915Z,18.33
2023-11-29T18:41:15.228Z,20.63
2023-11-29T18:43:41.839Z,18.30
2023-11-29T18:46:09.521Z,18.83
2023-11-29T18:48:36.271Z,18.40
2023-11-29T18:51:06.261Z,20.40
2023-11-29T18:53:32.891Z,19.83
2023-11-29T18:55:59.705Z,20.07
2023-11-29T18:58:26.871Z,25.20
2023-11-29T19:00:53.373Z,21.23
2023-11-29T19:03:20.079Z,17.07
2023-11-29T19:05:47.109Z,19.50
2023-11-29T19:08:13.718Z,19.87
2023-11-29T19:10:42.469Z,17.90
2023-11-29T19:13:10.293Z,24.20
2023-11-29T19:15:36.802Z,20.53
2023-11-29T19:18:03.851Z,20.00
2023-11-29T19:20:30.515Z,18.67
2023-11-29T19:22:57.144Z,21.73
2023-11-29T19:25:23.802Z,23.47
2023-11-29T19:27:50.531Z,20.70
2023-11-29T19:30:17.313Z,18.33
2023-11-29T19:32:44.143Z,18.90
2023-11-29T19:35:21.891Z,20.30
2023-11-29T19:37:52.206Z,17.33
2023-11-29T19:40:18.734Z,19.97
2023-11-29T19:42:45.314Z,19.60
2023-11-29T19:45:11.939Z,21.00
2023-11-29T19:47:38.923Z,21.30
2023-11-29T19:50:06.239Z,27.03
2023-11-29T19:52:40.956Z,19.40
2023-11-29T19:55:14.380Z,19.47
2023-11-29T19:57:40.956Z,18.80
2023-11-29T20:00:08.153Z,22.90
2023-11-29T20:02:34.852Z,20.70
2023-11-29T20:05:01.900Z,24.57
2023-11-29T20:07:28.546Z,22.63
2023-11-29T20:09:55.319Z,25.17
2023-11-29T20:12:22.238Z,20.60
2023-11-29T20:14:54.969Z,24.83
2023-11-29T20:17:24.102Z,26.27
2023-11-29T20:19:50.642Z,20.40
2023-11-29T20:22:17.214Z,26.90
2023-11-29T20:24:43.885Z,24.97
2023-11-29T20:27:10.589Z,21.77
2023-11-29T20:29:38.136Z,20.60
2023-11-29T20:32:05.161Z,23.77
2023-11-29T20:34:38.496Z,32.53
2023-11-29T20:37:14.264Z,22.57
2023-11-29T20:39:41.499Z,18.83
2023-11-29T20:42:08.079Z,21.03
2023-11-29T20:44:34.729Z,23.87
2023-11-29T20:47:01.330Z,21.77
2023-11-29T20:49:27.986Z,22.40
2023-11-29T20:51:54.502Z,23.17
2023-11-29T20:54:21.165Z,24.03
2023-11-29T20:56:47.718Z,30.13
2023-11-29T20:59:14.427Z,23.60
2023-11-29T21:01:41.372Z,28.50
2023-11-29T21:04:11.596Z,24.17
2023-11-29T21:06:39.587Z,31.90
2023-11-29T21:09:06.254Z,32.67
2023-11-29T21:11:32.951Z,28.80
2023-11-29T21:13:59.554Z,27.27
2023-11-29T21:16:26.314Z,29.33
2023-11-29T21:18:53.337Z,26.50
2023-11-29T21:21:20.056Z,25.73
2023-11-29T21:23:46.613Z,28.83
2023-11-29T21:26:13.598Z,24.40
2023-11-29T21:28:40.062Z,22.97
2023-11-29T21:31:07.061Z,21.93
2023-11-29T21:33:33.739Z,22.40
2023-11-29T21:36:00.377Z,23.47
2023-11-29T21:38:26.922Z,35.17
2023-11-29T21:40:55.557Z,29.10
2023-11-29T21:43:22.186Z,40.20
2023-11-29T21:45:48.707Z,34.23
2023-11-29T21:48:15.355Z,30.63
2023-11-29T21:50:41.998Z,32.03
2023-11-29T21:53:09.098Z,32.20
2023-11-29T21:55:35.870Z,29.73
2023-11-29T21:58:02.642Z,25.97
2023-11-29T22:00:29.517Z,28.40
2023-11-29T22:02:56.233Z,25.43
2023-11-29T22:05:24.464Z,25.57
2023-11-29T22:07:51.418Z,27.43
2023-11-29T22:10:18.288Z,21.67
2023-11-29T22:12:44.800Z,21.03
2023-11-29T22:15:11.385Z,24.20
2023-11-29T22:17:38.071Z,22.50
2023-11-29T22:20:05.073Z,28.00
2023-11-29T22:22:31.552Z,95.47
2023-11-29T22:24:58.073Z,93.33
2023-11-29T22:27:24.760Z,77.90
2023-11-29T22:29:51.324Z,67.57
2023-11-29T22:32:17.844Z,60.17
2023-11-29T22:34:44.336Z,66.70
2023-11-29T22:37:11.606Z,49.60
2023-11-29T22:39:39.351Z,41.70
2023-11-29T22:42:06.065Z,50.50
2023-11-29T22:44:32.619Z,44.00
2023-11-29T22:46:59.111Z,30.17
2023-11-29T22:49:26.083Z,34.17
2023-11-29T22:51:52.560Z,36.70
2023-11-29T22:54:19.361Z,35.03
2023-11-29T22:56:46.044Z,30.73
2023-11-29T22:59:12.606Z,32.13
2023-11-29T23:01:39.359Z,30.07
2023-11-29T23:04:06.207Z,33.17
2023-11-29T23:06:33.201Z,29.33
2023-11-29T23:09:00.300Z,29.80
2023-11-29T23:11:26.938Z,29.83
2023-11-29T23:13:53.721Z,29.73
2023-11-29T23:16:20.965Z,28.70
2023-11-29T23:18:48.718Z,29.67
2023-11-29T23:21:15.736Z,26.87
2023-11-29T23:23:44.313Z,26.30
2023-11-29T23:26:11.227Z,28.53
2023-11-29T23:28:37.850Z,24.07
2023-11-29T23:31:04.720Z,25.60
2023-11-29T23:33:31.422Z,23.80
2023-11-29T23:35:58.318Z,25.67
2023-11-29T23:38:25.184Z,22.67
2023-11-29T23:40:51.697Z,24.10
2023-11-29T23:43:19.320Z,23.13
2023-11-29T23:45:45.842Z,19.87
2023-11-29T23:48:12.469Z,21.43
2023-11-29T23:50:38.956Z,20.17
2023-11-29T23:53:05.444Z,24.60
2023-11-29T23:55:31.974Z,20.43
2023-11-29T23:57:58.525Z,21.90
